Bismarck, North Dakota
Current Conditions -  °F | °C
As of 10:02 PM on Thursday 20 Nov 2014 (Local Time) from KBIS Reporting Station
Overcast Overcast  
Wind Chill:   Ceiling: 1100
Heat Index: 17°   Visibility: 10mi
Dew Point: 15°   Wind: 8mph
Humidity: 92%   Direction: 170°S
Pressure: 29.94"   Gusts: NA
Location:  46.81°N, 100.77°W
Report Text: KBIS 210402Z 17007KT 10SM BKN011 OVC120 M08/M09 A2994 RMK AO2 T10831094
Loading
Personal Weather Stations






























Interactive Weather Map New forecast layout! Learn more

10-Day Weather Forecast

Advertisements
Track Severe Weather on mobile